createdAt,value
2022-10-17T00:01:30.728Z,5.97
2022-10-17T00:04:37.091Z,6.12
2022-10-17T00:07:42.116Z,5.60
2022-10-17T00:10:48.138Z,6.15
2022-10-17T00:13:54.240Z,6.30
2022-10-17T00:17:00.881Z,6.60
2022-10-17T00:20:07.353Z,6.55
2022-10-17T00:23:13.693Z,5.95
2022-10-17T00:26:20.222Z,5.62
2022-10-17T00:29:25.717Z,6.00
2022-10-17T00:32:31.785Z,5.95
2022-10-17T00:35:38.300Z,6.17
2022-10-17T00:38:44.940Z,5.03
2022-10-17T00:41:51.790Z,5.58
2022-10-17T00:45:03.029Z,5.55
2022-10-17T00:48:21.212Z,6.15
2022-10-17T00:51:16.688Z,5.62
2022-10-17T00:54:23.206Z,5.83
2022-10-17T00:57:29.737Z,7.33
2022-10-17T01:00:35.015Z,7.47
2022-10-17T01:03:40.596Z,6.90
2022-10-17T01:06:47.104Z,6.95
2022-10-17T01:09:55.287Z,6.70
2022-10-17T01:13:26.929Z,6.95
2022-10-17T01:16:59.182Z,8.43
2022-10-17T01:20:31.017Z,6.75
2022-10-17T01:24:16.014Z,7.50
2022-10-17T01:27:40.739Z,8.20
2022-10-17T01:31:30.933Z,7.05
2022-10-17T01:34:59.527Z,6.40
2022-10-17T01:38:13.316Z,7.35
2022-10-17T01:41:40.705Z,6.78
2022-10-17T01:45:02.369Z,6.55
2022-10-17T01:48:10.152Z,6.67
2022-10-17T01:51:19.163Z,7.78
2022-10-17T01:54:18.765Z,8.00
2022-10-17T01:57:35.353Z,7.67
2022-10-17T02:00:42.971Z,7.47
2022-10-17T02:03:49.081Z,6.65
2022-10-17T02:06:54.883Z,6.92
2022-10-17T02:10:01.411Z,7.87
2022-10-17T02:13:15.038Z,6.83
2022-10-17T02:16:59.322Z,7.28
2022-10-17T02:20:24.359Z,7.50
2022-10-17T02:23:49.137Z,8.03
2022-10-17T02:27:13.198Z,7.28
2022-10-17T02:30:39.456Z,7.75
2022-10-17T02:33:54.945Z,6.92
2022-10-17T02:37:10.307Z,7.62
2022-10-17T02:40:15.920Z,6.22
2022-10-17T02:43:23.012Z,7.53
2022-10-17T02:46:30.938Z,8.18
2022-10-17T02:49:48.717Z,6.95
2022-10-17T02:53:10.941Z,7.17
2022-10-17T02:56:19.208Z,8.25
2022-10-17T02:59:25.096Z,6.58
2022-10-17T03:02:31.736Z,6.87
2022-10-17T03:05:41.847Z,7.60
2022-10-17T03:08:47.031Z,7.70
2022-10-17T03:11:53.460Z,7.30
2022-10-17T03:14:59.784Z,7.78
2022-10-17T03:18:06.418Z,6.72
2022-10-17T03:21:12.739Z,8.08
2022-10-17T03:24:19.274Z,7.28
2022-10-17T03:27:25.154Z,7.00
2022-10-17T03:30:31.022Z,6.72
2022-10-17T03:33:36.759Z,7.30
2022-10-17T03:36:43.141Z,6.40
2022-10-17T03:39:49.459Z,7.40
2022-10-17T03:42:54.993Z,7.70
2022-10-17T03:46:01.541Z,8.40
2022-10-17T03:49:08.446Z,7.62
2022-10-17T03:52:14.319Z,6.90
2022-10-17T03:55:19.129Z,7.65
2022-10-17T03:58:23.866Z,7.60
2022-10-17T04:01:32.203Z,7.33
2022-10-17T04:04:38.714Z,8.13
2022-10-17T04:07:44.700Z,7.00
2022-10-17T04:10:51.122Z,7.25
2022-10-17T04:13:58.889Z,7.85
2022-10-17T04:17:05.513Z,7.03
2022-10-17T04:20:10.920Z,7.72
2022-10-17T04:23:16.144Z,7.97
2022-10-17T04:26:22.708Z,7.67
2022-10-17T04:29:30.534Z,7.35
2022-10-17T04:32:47.141Z,8.03
2022-10-17T04:35:53.775Z,7.22
2022-10-17T04:39:01.146Z,8.43
2022-10-17T04:42:06.724Z,7.75
2022-10-17T04:45:14.130Z,8.35
2022-10-17T04:48:21.830Z,8.48
2022-10-17T04:51:31.129Z,7.30
2022-10-17T04:54:38.820Z,8.40
2022-10-17T04:57:47.582Z,8.73
2022-10-17T05:00:54.029Z,7.97
2022-10-17T05:04:01.294Z,9.08
2022-10-17T05:07:06.762Z,9.43
2022-10-17T05:10:14.006Z,8.93
2022-10-17T05:13:20.628Z,8.80
2022-10-17T05:16:26.484Z,7.65
2022-10-17T05:19:25.538Z,9.40
2022-10-17T05:25:51.640Z,8.83
2022-10-17T05:29:00.425Z,8.55
2022-10-17T05:32:07.756Z,8.95
2022-10-17T05:35:13.677Z,8.93
2022-10-17T05:38:21.419Z,8.73
2022-10-17T05:41:27.588Z,7.72
2022-10-17T05:44:33.996Z,8.28
2022-10-17T05:47:40.868Z,7.62
2022-10-17T05:50:49.108Z,7.65
2022-10-17T05:53:56.185Z,7.55
2022-10-17T05:57:12.334Z,7.75
2022-10-17T06:00:20.421Z,8.00
2022-10-17T06:03:28.226Z,7.75
2022-10-17T06:06:36.263Z,6.95
2022-10-17T06:09:43.438Z,7.03
2022-10-17T06:12:52.293Z,8.15
2022-10-17T06:15:58.234Z,7.03
2022-10-17T06:19:03.776Z,7.60
2022-10-17T06:22:09.778Z,7.83
2022-10-17T06:25:15.634Z,6.78
2022-10-17T06:28:21.931Z,6.28
2022-10-17T06:31:30.306Z,6.90
2022-10-17T06:34:36.054Z,6.08
2022-10-17T06:37:48.039Z,6.75
2022-10-17T06:40:55.581Z,6.67
2022-10-17T06:44:02.960Z,5.80
2022-10-17T06:47:16.519Z,6.40
2022-10-17T06:50:24.863Z,6.10
2022-10-17T06:53:33.955Z,6.35
2022-10-17T06:56:45.107Z,6.95
2022-10-17T06:59:52.496Z,5.92
2022-10-17T07:03:00.387Z,6.22
2022-10-17T07:06:10.200Z,6.22
2022-10-17T07:09:19.978Z,6.55
2022-10-17T07:12:24.870Z,6.00
2022-10-17T07:15:36.404Z,5.83
2022-10-17T07:18:42.030Z,5.62
2022-10-17T07:21:51.013Z,5.00
2022-10-17T07:24:58.353Z,5.62
2022-10-17T07:28:10.872Z,5.03
2022-10-17T07:31:26.525Z,5.10
2022-10-17T07:34:34.411Z,5.35
2022-10-17T07:37:41.214Z,4.58
2022-10-17T07:40:49.989Z,4.78
2022-10-17T07:43:55.708Z,4.97
2022-10-17T07:47:02.876Z,4.67
2022-10-17T07:50:09.549Z,4.47
2022-10-17T07:53:15.734Z,4.87
2022-10-17T07:56:23.240Z,4.67
2022-10-17T07:59:29.906Z,4.62
2022-10-17T08:02:33.799Z,4.87
2022-10-17T08:05:44.007Z,4.75
2022-10-17T08:08:43.243Z,5.00
2022-10-17T08:11:31.342Z,4.65
2022-10-17T08:14:27.568Z,4.92
2022-10-17T08:17:13.447Z,4.92
2022-10-17T08:20:05.696Z,3.87
2022-10-17T08:23:16.705Z,4.58
2022-10-17T08:26:26.774Z,4.17
2022-10-17T08:29:34.037Z,3.98
2022-10-17T08:32:42.551Z,4.72
2022-10-17T08:35:48.047Z,4.28
2022-10-17T08:38:53.815Z,4.00
2022-10-17T08:42:24.122Z,3.52
2022-10-17T08:45:46.093Z,4.10
2022-10-17T08:48:58.469Z,4.50
2022-10-17T08:52:10.690Z,4.87
2022-10-17T08:58:56.385Z,3.77
2022-10-17T09:02:39.267Z,4.05
2022-10-17T09:06:06.358Z,4.10
2022-10-17T09:09:40.857Z,4.03
2022-10-17T09:13:14.441Z,4.15
2022-10-17T09:16:38.934Z,2.77
2022-10-17T09:20:18.547Z,2.80
2022-10-17T09:23:36.166Z,2.65
2022-10-17T09:26:41.889Z,2.80
2022-10-17T09:29:47.595Z,2.98
2022-10-17T09:32:54.592Z,2.45
2022-10-17T09:36:01.104Z,2.60
2022-10-17T09:39:22.844Z,3.15
2022-10-17T09:42:16.203Z,2.50
2022-10-17T09:45:38.395Z,2.70
2022-10-17T09:48:59.865Z,2.47
2022-10-17T09:52:05.063Z,2.65
2022-10-17T09:55:16.963Z,2.40
2022-10-17T09:58:23.314Z,2.10
2022-10-17T10:01:41.317Z,2.00
2022-10-17T10:05:03.274Z,2.52
2022-10-17T10:07:54.644Z,2.45
2022-10-17T10:10:59.898Z,2.75
2022-10-17T10:14:05.861Z,2.50
2022-10-17T10:17:13.460Z,2.60
2022-10-17T10:20:47.918Z,2.80
2022-10-17T10:23:57.399Z,3.17
2022-10-17T10:27:05.337Z,2.95
2022-10-17T10:30:12.440Z,2.37
2022-10-17T10:33:16.990Z,2.90
2022-10-17T10:36:22.217Z,2.17
2022-10-17T10:39:42.869Z,2.80
2022-10-17T10:42:51.942Z,2.92
2022-10-17T10:45:58.344Z,2.25
2022-10-17T10:49:16.452Z,2.65
2022-10-17T10:52:21.945Z,2.40
2022-10-17T10:55:53.826Z,2.60
2022-10-17T10:59:07.758Z,2.50
2022-10-17T11:02:39.633Z,2.47
2022-10-17T11:06:13.371Z,4.30
2022-10-17T11:09:42.703Z,2.40
2022-10-17T11:13:29.552Z,2.10
2022-10-17T11:16:41.876Z,2.55
2022-10-17T11:19:59.597Z,2.77
2022-10-17T11:23:08.693Z,2.10
2022-10-17T11:26:17.306Z,2.17
2022-10-17T11:29:25.295Z,2.27
2022-10-17T11:32:53.790Z,2.40
2022-10-17T11:35:54.385Z,1.82
2022-10-17T11:38:57.709Z,1.75
2022-10-17T11:42:03.504Z,1.82
2022-10-17T11:44:50.549Z,1.92
2022-10-17T11:47:57.768Z,2.17
2022-10-17T11:54:16.318Z,2.05
2022-10-17T11:57:50.584Z,1.98
2022-10-17T12:01:22.915Z,1.85
2022-10-17T12:04:56.068Z,1.77
2022-10-17T12:08:20.537Z,1.55
2022-10-17T12:12:02.870Z,2.10
2022-10-17T12:15:09.205Z,1.77
2022-10-17T12:18:17.604Z,2.02
2022-10-17T12:21:23.068Z,1.70
2022-10-17T12:24:36.418Z,1.85
2022-10-17T12:27:54.621Z,1.77
2022-10-17T12:31:16.428Z,1.80
2022-10-17T12:34:28.563Z,2.15
2022-10-17T12:38:00.904Z,1.65
2022-10-17T12:41:11.569Z,2.40
2022-10-17T12:44:16.792Z,2.47
2022-10-17T12:47:28.656Z,2.05
2022-10-17T12:51:34.919Z,2.00
2022-10-17T12:54:29.705Z,2.02
2022-10-17T12:57:59.145Z,1.92
2022-10-17T13:01:24.706Z,2.10
2022-10-17T13:04:15.803Z,1.75
2022-10-17T13:07:22.488Z,1.98
2022-10-17T13:10:43.205Z,1.65
2022-10-17T13:14:03.101Z,1.55
2022-10-17T13:17:16.375Z,1.85
2022-10-17T13:20:35.045Z,1.87
2022-10-17T13:23:46.553Z,2.08
2022-10-17T13:26:51.307Z,1.95
2022-10-17T13:29:59.228Z,1.60
2022-10-17T13:33:05.024Z,1.70
2022-10-17T13:36:10.631Z,1.55
2022-10-17T13:39:38.207Z,1.90
2022-10-17T13:42:40.356Z,1.70
2022-10-17T13:45:49.508Z,2.17
2022-10-17T13:48:56.548Z,1.97
2022-10-17T13:52:04.074Z,1.60
2022-10-17T13:55:11.772Z,2.00
2022-10-17T13:58:33.020Z,2.00
2022-10-17T14:01:41.092Z,1.80
2022-10-17T14:05:15.585Z,1.95
2022-10-17T14:08:15.126Z,2.05
2022-10-17T14:11:42.859Z,3.25
2022-10-17T14:15:09.637Z,2.20
2022-10-17T14:17:57.857Z,2.30
2022-10-17T14:24:37.900Z,2.22
2022-10-17T14:27:49.509Z,1.70
2022-10-17T14:31:02.773Z,2.22
2022-10-17T14:34:09.165Z,2.33
2022-10-17T14:37:15.753Z,1.92
2022-10-17T14:40:22.349Z,2.10
2022-10-17T14:43:31.608Z,2.20
2022-10-17T14:46:38.001Z,2.27
2022-10-17T14:49:50.717Z,2.25
2022-10-17T14:52:56.883Z,2.33
2022-10-17T14:56:13.822Z,2.27
2022-10-17T14:59:51.764Z,1.72
2022-10-17T15:02:30.450Z,3.37
2022-10-17T15:05:36.336Z,3.62
2022-10-17T15:11:49.933Z,2.33
2022-10-17T15:14:55.916Z,2.55
2022-10-17T15:18:02.116Z,2.10
2022-10-17T15:21:25.621Z,2.27
2022-10-17T15:24:16.847Z,2.90
2022-10-17T15:27:35.726Z,3.52
2022-10-17T15:30:47.023Z,5.78
2022-10-17T15:33:53.813Z,28.45
2022-10-17T15:37:06.024Z,15.72
2022-10-17T15:40:11.085Z,11.90
2022-10-17T15:43:19.931Z,9.50
2022-10-17T15:46:32.132Z,9.15
2022-10-17T15:49:37.809Z,9.65
2022-10-17T15:52:43.913Z,8.63
2022-10-17T15:55:50.242Z,8.48
2022-10-17T15:58:56.653Z,8.58
2022-10-17T16:02:03.097Z,14.33
2022-10-17T16:05:09.847Z,13.60
2022-10-17T16:08:15.890Z,53.73
2022-10-17T16:11:21.484Z,35.20
2022-10-17T16:14:30.650Z,38.28
2022-10-17T16:17:37.274Z,14.60
2022-10-17T16:20:43.056Z,14.98
2022-10-17T16:23:48.268Z,12.37
2022-10-17T16:26:54.602Z,5.47
2022-10-17T16:30:00.413Z,5.80
2022-10-17T16:33:07.145Z,5.28
2022-10-17T16:36:13.699Z,6.00
2022-10-17T16:39:19.357Z,6.40
2022-10-17T16:42:25.197Z,6.05
2022-10-17T16:45:35.103Z,6.70
2022-10-17T16:51:47.193Z,8.85
2022-10-17T16:54:53.961Z,16.62
2022-10-17T16:57:59.905Z,10.30
2022-10-17T17:01:05.697Z,8.08
2022-10-17T17:04:12.155Z,8.88
2022-10-17T17:07:11.203Z,9.65
2022-10-17T17:10:03.621Z,15.98
2022-10-17T17:13:10.769Z,14.85
2022-10-17T17:16:29.844Z,17.67
2022-10-17T17:19:35.192Z,10.53
2022-10-17T17:22:43.096Z,11.40
2022-10-17T17:25:52.193Z,17.42
2022-10-17T17:28:59.687Z,15.88
2022-10-17T17:32:07.168Z,48.90
2022-10-17T17:35:13.498Z,37.48
2022-10-17T17:38:12.123Z,14.35
2022-10-17T17:41:18.839Z,19.65
2022-10-17T17:44:26.424Z,14.80
2022-10-17T17:47:33.024Z,13.38
2022-10-17T17:50:33.157Z,20.60
2022-10-17T17:53:38.610Z,15.77
2022-10-17T17:56:45.053Z,11.85
2022-10-17T17:59:50.386Z,14.20
2022-10-17T18:02:55.987Z,11.25
2022-10-17T18:06:05.326Z,9.75
2022-10-17T18:09:13.622Z,9.58
2022-10-17T18:12:19.368Z,9.30
2022-10-17T18:15:24.171Z,9.60
2022-10-17T18:18:29.728Z,16.55
2022-10-17T18:21:35.704Z,24.57
2022-10-17T18:24:40.638Z,49.65
2022-10-17T18:27:45.097Z,45.08
2022-10-17T18:30:52.734Z,33.20
2022-10-17T18:33:58.741Z,22.58
2022-10-17T18:37:05.587Z,26.55
2022-10-17T18:40:11.750Z,23.27
2022-10-17T18:43:17.514Z,30.88
2022-10-17T18:46:25.781Z,41.98
2022-10-17T18:49:33.315Z,56.33
2022-10-17T18:52:38.994Z,38.30
2022-10-17T18:58:50.772Z,20.17
2022-10-17T19:01:56.513Z,25.90
2022-10-17T19:05:04.428Z,59.42
2022-10-17T19:08:10.648Z,25.92
2022-10-17T19:11:34.202Z,23.90
2022-10-17T19:14:40.841Z,14.13
2022-10-17T19:17:48.606Z,24.52
2022-10-17T19:20:54.969Z,23.50
2022-10-17T19:24:07.971Z,24.67
2022-10-17T19:27:14.260Z,49.00
2022-10-17T19:30:20.720Z,37.42
2022-10-17T19:36:34.873Z,14.10
2022-10-17T19:39:40.027Z,12.93
2022-10-17T19:42:45.409Z,12.82
2022-10-17T19:45:51.358Z,14.83
2022-10-17T19:48:57.047Z,13.28
2022-10-17T19:52:04.019Z,21.27
2022-10-17T19:55:10.017Z,20.23
2022-10-17T19:58:15.615Z,17.23
2022-10-17T20:01:21.948Z,22.37
2022-10-17T20:04:28.446Z,17.40
2022-10-17T20:07:34.593Z,17.17
2022-10-17T20:10:40.912Z,18.45
2022-10-17T20:13:48.175Z,16.37
2022-10-17T20:16:55.129Z,15.85
2022-10-17T20:20:02.368Z,16.90
2022-10-17T20:23:07.559Z,21.95
2022-10-17T20:29:34.666Z,21.90
2022-10-17T20:32:45.838Z,19.92
2022-10-17T20:35:55.983Z,19.92
2022-10-17T20:39:01.595Z,19.35
2022-10-17T20:42:07.427Z,18.52
2022-10-17T20:45:13.979Z,22.58
2022-10-17T20:48:20.600Z,23.20
2022-10-17T20:51:26.075Z,19.15
2022-10-17T20:54:31.794Z,18.85
2022-10-17T20:57:37.436Z,17.87
2022-10-17T21:00:44.200Z,16.97
2022-10-17T21:03:53.776Z,20.52
2022-10-17T21:06:59.867Z,19.82
2022-10-17T21:10:24.038Z,15.50
2022-10-17T21:13:15.061Z,13.70
2022-10-17T21:16:22.723Z,14.45
2022-10-17T21:19:29.971Z,16.80
2022-10-17T21:22:35.249Z,17.62
2022-10-17T21:25:40.942Z,19.10
2022-10-17T21:28:48.485Z,18.57
2022-10-17T21:31:56.911Z,19.55
2022-10-17T21:35:02.707Z,17.90
2022-10-17T21:38:09.046Z,18.52
2022-10-17T21:41:15.109Z,18.25
2022-10-17T21:44:24.481Z,19.40
2022-10-17T21:47:29.934Z,18.20
2022-10-17T21:50:35.350Z,19.35
2022-10-17T21:53:40.712Z,19.60
2022-10-17T21:56:46.886Z,17.67
2022-10-17T21:59:52.217Z,17.65
2022-10-17T22:02:58.451Z,16.45
2022-10-17T22:06:12.933Z,17.60
2022-10-17T22:09:12.164Z,15.50
2022-10-17T22:12:18.698Z,17.60
2022-10-17T22:15:26.448Z,17.10
2022-10-17T22:18:31.796Z,16.82
2022-10-17T22:21:36.887Z,16.93
2022-10-17T22:24:42.668Z,15.13
2022-10-17T22:27:48.456Z,14.65
2022-10-17T22:30:55.499Z,14.85
2022-10-17T22:34:01.062Z,15.25
2022-10-17T22:37:06.619Z,11.43
2022-10-17T22:40:13.202Z,14.07
2022-10-17T22:43:19.881Z,14.83
2022-10-17T22:46:26.552Z,15.78
2022-10-17T22:49:31.435Z,13.28
2022-10-17T22:52:38.335Z,14.73
2022-10-17T22:55:43.647Z,14.40
2022-10-17T22:58:48.950Z,13.50
2022-10-17T23:01:55.598Z,15.15
2022-10-17T23:05:00.564Z,11.45
2022-10-17T23:08:08.010Z,10.03
2022-10-17T23:11:13.744Z,10.40
2022-10-17T23:14:20.101Z,11.15
2022-10-17T23:17:26.316Z,9.93
2022-10-17T23:20:32.358Z,9.40
2022-10-17T23:23:37.988Z,9.88
2022-10-17T23:26:43.110Z,9.70
2022-10-17T23:29:48.955Z,9.68
2022-10-17T23:32:54.514Z,9.38
2022-10-17T23:36:00.049Z,9.35
2022-10-17T23:39:06.073Z,9.90
2022-10-17T23:42:12.901Z,10.35
2022-10-17T23:45:20.679Z,9.35
2022-10-17T23:48:28.203Z,10.68
2022-10-17T23:51:33.923Z,9.25
2022-10-17T23:57:46.431Z,8.70
